sim
Sign-in with your pilot id or email,
or register
Callsign
Passwort

Schedule Details

Flight Number: DLH1976 (1)
Departure: Munich Airport (EDDM) at 08:20
Arrival: Luqa Malta International Airport (LMML) at 10:35
Route: Lufthansa Passenger Schedule. Enter filed route here before submitting Pirep.

Weather Information
Getting current METAR information for EDDM 250320Z 22007KT 9999 -RA FEW008 SCT043 13/12 Q1002 NOSIG
Getting current METAR information for LMML 250315Z 20007KT CAVOK 24/22 Q1014 NOSIG

Schedule Frequency

Route Map